Time;durP1;ratioP1;P1;durP2;ratioP2;P2;SDS_P1;SDS_P2;PMS_P1;PMS_P2;Temp;Humidity;BMP_temperature;BMP_pressure;BME280_temperature;BME280_humidity;BME280_pressure;Samples;Min_cycle;Max_cycle;Signal;HPM_P1;HPM_P2
2022/02/27 00:02:07;;;;;;;0.60;0.60;;;;;;;;;;5031628;28;20838;-61
2022/02/27 00:04:33;;;;;;;0.60;0.60;;;;;;;;;;5031807;28;20775;-61
2022/02/27 00:06:59;;;;;;;0.50;0.50;;;;;;;;;;5034894;28;20887;-59
2022/02/27 00:09:25;;;;;;;0.60;0.60;;;;;;;;;;5032099;28;20181;-58
2022/02/27 00:11:51;;;;;;;0.60;0.60;;;;;;;;;;5031498;28;20502;-58
2022/02/27 00:14:17;;;;;;;0.53;0.53;;;;;;;;;;5031703;28;20400;-56
2022/02/27 00:16:43;;;;;;;0.60;0.60;;;;;;;;;;5031657;28;20817;-59
2022/02/27 00:19:08;;;;;;;0.50;0.50;;;;;;;;;;5031469;28;20834;-60
2022/02/27 00:21:34;;;;;;;0.50;0.50;;;;;;;;;;5031334;28;20935;-60
2022/02/27 00:24:00;;;;;;;0.60;0.60;;;;;;;;;;5031588;28;20400;-61
2022/02/27 00:26:26;;;;;;;0.50;0.50;;;;;;;;;;5031405;28;20404;-59
2022/02/27 00:28:52;;;;;;;0.50;0.50;;;;;;;;;;5031529;28;20420;-60
2022/02/27 00:31:18;;;;;;;0.60;0.60;;;;;;;;;;5031090;28;20433;-60
2022/02/27 00:33:44;;;;;;;0.50;0.50;;;;;;;;;;5031383;28;20412;-58
2022/02/27 00:36:10;;;;;;;0.60;0.60;;;;;;;;;;5031336;28;20231;-60
2022/02/27 00:38:36;;;;;;;0.60;0.60;;;;;;;;;;5031378;28;20816;-60
2022/02/27 00:41:02;;;;;;;0.57;0.57;;;;;;;;;;5030804;28;20644;-60
2022/02/27 00:43:28;;;;;;;0.60;0.60;;;;;;;;;;5035520;28;20219;-58
2022/02/27 00:45:54;;;;;;;0.60;0.60;;;;;;;;;;5035451;28;20184;-59
2022/02/27 00:48:20;;;;;;;0.60;0.60;;;;;;;;;;5035362;28;20473;-60
2022/02/27 00:50:46;;;;;;;0.50;0.50;;;;;;;;;;5035079;28;20914;-59
2022/02/27 00:53:12;;;;;;;0.50;0.50;;;;;;;;;;5035215;28;20192;-58
2022/02/27 00:55:38;;;;;;;0.60;0.60;;;;;;;;;;5035268;28;20512;-59
2022/02/27 00:58:04;;;;;;;0.50;0.50;;;;;;;;;;5035241;28;20459;-61
2022/02/27 01:00:30;;;;;;;0.50;0.50;;;;;;;;;;5034927;28;20720;-59
2022/02/27 01:02:56;;;;;;;0.50;0.50;;;;;;;;;;5035029;28;20197;-60
2022/02/27 01:05:22;;;;;;;0.50;0.50;;;;;;;;;;5035066;28;20404;-58
2022/02/27 01:07:47;;;;;;;0.50;0.50;;;;;;;;;;5035166;28;20411;-59
2022/02/27 01:10:13;;;;;;;0.60;0.60;;;;;;;;;;5034663;28;20417;-58
2022/02/27 01:12:39;;;;;;;0.50;0.50;;;;;;;;;;5035073;28;20434;-60
2022/02/27 01:15:07;;;;;;;0.60;0.60;;;;;;;;;;5034897;28;20498;-59
2022/02/27 01:17:33;;;;;;;0.50;0.50;;;;;;;;;;5034757;28;20725;-59
2022/02/27 01:19:59;;;;;;;0.50;0.50;;;;;;;;;;5034803;28;20201;-61
2022/02/27 01:22:25;;;;;;;0.55;0.55;;;;;;;;;;5034476;28;20470;-58
2022/02/27 01:24:51;;;;;;;0.60;0.60;;;;;;;;;;5034621;28;20207;-58
2022/02/27 01:27:17;;;;;;;0.40;0.40;;;;;;;;;;5034742;28;20169;-60
2022/02/27 01:29:43;;;;;;;0.60;0.60;;;;;;;;;;5034661;28;20506;-61
2022/02/27 01:32:09;;;;;;;0.60;0.60;;;;;;;;;;5034307;28;20419;-57
2022/02/27 01:34:35;;;;;;;0.50;0.50;;;;;;;;;;5034539;28;20407;-60
2022/02/27 01:37:01;;;;;;;0.50;0.50;;;;;;;;;;5034580;28;20499;-60
2022/02/27 01:39:26;;;;;;;0.60;0.60;;;;;;;;;;5034243;28;20455;-60
2022/02/27 01:41:52;;;;;;;0.60;0.60;;;;;;;;;;5034538;28;20219;-61
2022/02/27 01:44:20;;;;;;;0.50;0.50;;;;;;;;;;5034842;28;20411;-59
2022/02/27 01:47:02;;;;;;;0.60;0.60;;;;;;;;;;5034329;28;20410;-56
2022/02/27 01:49:28;;;;;;;0.60;0.60;;;;;;;;;;5034271;28;20555;-58
2022/02/27 01:51:54;;;;;;;0.60;0.60;;;;;;;;;;5033645;28;20200;-61
2022/02/27 01:54:20;;;;;;;0.50;0.50;;;;;;;;;;5034239;28;20176;-59
2022/02/27 01:56:46;;;;;;;0.50;0.50;;;;;;;;;;5034208;28;20256;-59
2022/02/27 01:59:14;;;;;;;0.60;0.60;;;;;;;;;;5034036;28;20316;-61
2022/02/27 02:01:40;;;;;;;0.50;0.50;;;;;;;;;;5033803;28;20815;-55
2022/02/27 02:04:06;;;;;;;0.60;0.60;;;;;;;;;;5034043;28;20165;-59
2022/02/27 02:06:32;;;;;;;0.55;0.55;;;;;;;;;;5033832;28;20524;-56
2022/02/27 02:08:58;;;;;;;0.50;0.50;;;;;;;;;;5033985;28;20263;-60
2022/02/27 02:11:24;;;;;;;0.60;0.60;;;;;;;;;;5033646;28;20431;-60
2022/02/27 02:13:50;;;;;;;0.60;0.60;;;;;;;;;;5033869;28;20422;-58
2022/02/27 02:16:16;;;;;;;0.50;0.50;;;;;;;;;;5033769;28;20411;-60
2022/02/27 02:18:42;;;;;;;0.60;0.60;;;;;;;;;;5033791;28;20223;-61
2022/02/27 02:21:08;;;;;;;0.60;0.60;;;;;;;;;;5033364;28;20530;-61
2022/02/27 02:23:34;;;;;;;0.60;0.60;;;;;;;;;;5033708;28;20400;-61
2022/02/27 02:26:00;;;;;;;0.60;0.60;;;;;;;;;;5033937;28;20173;-59
2022/02/27 02:28:26;;;;;;;0.60;0.60;;;;;;;;;;5033616;28;20915;-60
2022/02/27 02:30:52;;;;;;;0.60;0.60;;;;;;;;;;5033192;28;20184;-60
2022/02/27 02:33:18;;;;;;;0.60;0.60;;;;;;;;;;5015673;28;20427;-61
2022/02/27 02:35:45;;;;;;;0.60;0.60;;;;;;;;;;5033335;28;20457;-60
2022/02/27 02:38:11;;;;;;;0.60;0.60;;;;;;;;;;5033374;28;20485;-60
2022/02/27 02:40:37;;;;;;;0.60;0.60;;;;;;;;;;5033022;28;20172;-60
2022/02/27 02:43:03;;;;;;;0.60;0.60;;;;;;;;;;5033160;28;20213;-61
2022/02/27 02:45:29;;;;;;;0.52;0.52;;;;;;;;;;5033202;28;20177;-60
2022/02/27 02:47:56;;;;;;;0.70;0.70;;;;;;;;;;5033179;28;20187;-61
2022/02/27 02:50:22;;;;;;;0.50;0.50;;;;;;;;;;5032813;28;20416;-61
2022/02/27 02:52:48;;;;;;;0.60;0.60;;;;;;;;;;5033257;28;20196;-59
2022/02/27 02:55:16;;;;;;;0.52;0.52;;;;;;;;;;5033055;28;20235;-59
2022/02/27 02:57:42;;;;;;;0.60;0.60;;;;;;;;;;5032962;28;20219;-59
2022/02/27 03:00:09;;;;;;;0.60;0.60;;;;;;;;;;5032250;28;20181;-57
2022/02/27 03:02:36;;;;;;;0.60;0.60;;;;;;;;;;5032778;28;20200;-60
2022/02/27 03:05:02;;;;;;;0.52;0.52;;;;;;;;;;5031979;28;20597;-61
2022/02/27 03:07:28;;;;;;;0.50;0.50;;;;;;;;;;5032830;28;20177;-60
2022/02/27 03:09:54;;;;;;;0.60;0.60;;;;;;;;;;5032724;28;20186;-60
2022/02/27 03:12:20;;;;;;;0.60;0.60;;;;;;;;;;5032553;28;21008;-58
2022/02/27 03:14:46;;;;;;;0.55;0.55;;;;;;;;;;5032668;28;20176;-60
2022/02/27 03:17:12;;;;;;;0.60;0.60;;;;;;;;;;5014869;28;20272;-60
2022/02/27 03:19:38;;;;;;;0.50;0.50;;;;;;;;;;5036593;28;20464;-59
2022/02/27 03:22:04;;;;;;;0.50;0.50;;;;;;;;;;5032516;28;20423;-61
2022/02/27 03:24:30;;;;;;;0.60;0.60;;;;;;;;;;5032730;28;20486;-59
2022/02/27 03:26:56;;;;;;;0.60;0.60;;;;;;;;;;5032612;28;20675;-59
2022/02/27 03:29:21;;;;;;;0.60;0.60;;;;;;;;;;5032360;28;20407;-60
2022/02/27 03:31:47;;;;;;;0.50;0.50;;;;;;;;;;5032093;28;20431;-61
2022/02/27 03:34:13;;;;;;;0.60;0.60;;;;;;;;;;5032771;28;20416;-61
2022/02/27 03:36:39;;;;;;;0.50;0.50;;;;;;;;;;5032203;28;20447;-61
2022/02/27 03:39:05;;;;;;;0.50;0.50;;;;;;;;;;5032039;28;20463;-61
2022/02/27 03:41:31;;;;;;;0.50;0.50;;;;;;;;;;5031746;28;20439;-60
2022/02/27 03:43:57;;;;;;;0.50;0.50;;;;;;;;;;5033170;28;20436;-61
2022/02/27 03:46:23;;;;;;;0.60;0.60;;;;;;;;;;5032026;28;20231;-58
2022/02/27 03:48:49;;;;;;;0.60;0.60;;;;;;;;;;5032032;28;20918;-59
2022/02/27 03:51:15;;;;;;;0.60;0.60;;;;;;;;;;5031731;28;20204;-59
2022/02/27 03:53:41;;;;;;;0.60;0.60;;;;;;;;;;5032131;28;20439;-61
2022/02/27 03:56:07;;;;;;;0.50;0.50;;;;;;;;;;5032106;28;20180;-59
2022/02/27 03:58:33;;;;;;;0.52;0.52;;;;;;;;;;5031771;28;21024;-58
2022/02/27 04:00:59;;;;;;;0.50;0.50;;;;;;;;;;5031583;28;20173;-60
2022/02/27 04:03:25;;;;;;;0.60;0.60;;;;;;;;;;5031783;28;20461;-60
2022/02/27 04:05:51;;;;;;;0.60;0.60;;;;;;;;;;5031787;28;20465;-60
2022/02/27 04:08:17;;;;;;;0.70;0.70;;;;;;;;;;5031751;28;20180;-60
2022/02/27 04:10:43;;;;;;;0.60;0.60;;;;;;;;;;5031433;28;20498;-60
2022/02/27 04:13:09;;;;;;;0.50;0.50;;;;;;;;;;5031572;28;20427;-60
2022/02/27 04:15:35;;;;;;;0.50;0.50;;;;;;;;;;5031458;28;20675;-60
2022/02/27 04:18:00;;;;;;;0.50;0.50;;;;;;;;;;5031492;28;20454;-61
2022/02/27 04:20:26;;;;;;;0.50;0.50;;;;;;;;;;5031327;28;20408;-60
2022/02/27 04:22:52;;;;;;;0.47;0.47;;;;;;;;;;5031548;28;20432;-59
2022/02/27 04:25:18;;;;;;;0.50;0.50;;;;;;;;;;5031483;28;20412;-61
2022/02/27 04:27:44;;;;;;;0.60;0.60;;;;;;;;;;5031464;28;20423;-60
2022/02/27 04:30:10;;;;;;;0.50;0.50;;;;;;;;;;5031213;28;20173;-61
2022/02/27 04:32:36;;;;;;;0.60;0.60;;;;;;;;;;5031325;28;20193;-61
2022/02/27 04:35:02;;;;;;;0.60;0.60;;;;;;;;;;5031460;28;20608;-60
2022/02/27 04:37:28;;;;;;;0.60;0.60;;;;;;;;;;5031415;28;20201;-60
2022/02/27 04:39:54;;;;;;;0.50;0.50;;;;;;;;;;5031267;28;21036;-59
2022/02/27 04:42:20;;;;;;;0.50;0.50;;;;;;;;;;5030838;28;20572;-60
2022/02/27 04:44:46;;;;;;;0.60;0.60;;;;;;;;;;5031261;28;20775;-61
2022/02/27 04:47:12;;;;;;;0.60;0.60;;;;;;;;;;5031261;28;20403;-60
2022/02/27 04:49:38;;;;;;;0.50;0.50;;;;;;;;;;5031321;28;20169;-60
2022/02/27 04:52:05;;;;;;;0.60;0.60;;;;;;;;;;5031098;28;20696;-60
2022/02/27 04:54:31;;;;;;;0.52;0.52;;;;;;;;;;5031267;28;20407;-61
2022/02/27 04:56:57;;;;;;;0.60;0.60;;;;;;;;;;5031212;28;20255;-59
2022/02/27 04:59:23;;;;;;;0.60;0.60;;;;;;;;;;5031014;28;20296;-60
2022/02/27 05:01:49;;;;;;;0.70;0.70;;;;;;;;;;5030905;28;20446;-56
2022/02/27 05:04:15;;;;;;;0.60;0.60;;;;;;;;;;5032191;28;20408;-61
2022/02/27 05:06:41;;;;;;;0.60;0.60;;;;;;;;;;5031241;28;20214;-58
2022/02/27 05:09:09;;;;;;;0.60;0.60;;;;;;;;;;5031167;28;20665;-60
2022/02/27 05:11:34;;;;;;;0.50;0.50;;;;;;;;;;5030811;28;20431;-56
2022/02/27 05:14:01;;;;;;;0.60;0.60;;;;;;;;;;5030993;28;20646;-58
2022/02/27 05:16:28;;;;;;;0.52;0.52;;;;;;;;;;5030948;28;20522;-60
2022/02/27 05:18:54;;;;;;;0.70;0.70;;;;;;;;;;5031104;28;20207;-59
2022/02/27 05:21:22;;;;;;;0.60;0.60;;;;;;;;;;5030653;28;20196;-59
2022/02/27 05:23:48;;;;;;;0.70;0.70;;;;;;;;;;5030964;28;20453;-59
2022/02/27 05:26:14;;;;;;;0.55;0.55;;;;;;;;;;5030960;28;20270;-59
2022/02/27 05:28:40;;;;;;;0.70;0.70;;;;;;;;;;5033380;28;20173;-59
2022/02/27 05:31:06;;;;;;;0.70;0.70;;;;;;;;;;5034536;28;20407;-58
2022/02/27 05:33:32;;;;;;;0.60;0.60;;;;;;;;;;5033957;28;20934;-61
2022/02/27 05:35:58;;;;;;;0.50;0.50;;;;;;;;;;5034581;28;20486;-60
2022/02/27 05:38:24;;;;;;;0.50;0.50;;;;;;;;;;5034468;28;20451;-57
2022/02/27 05:40:50;;;;;;;0.63;0.63;;;;;;;;;;5034068;28;20722;-59
2022/02/27 05:43:16;;;;;;;0.60;0.60;;;;;;;;;;5034448;28;20942;-58
2022/02/27 05:45:42;;;;;;;0.60;0.60;;;;;;;;;;5034394;28;20480;-59
2022/02/27 05:48:08;;;;;;;0.60;0.60;;;;;;;;;;5034245;28;20506;-59
2022/02/27 05:50:34;;;;;;;0.60;0.60;;;;;;;;;;5034034;28;20763;-61
2022/02/27 05:53:00;;;;;;;0.60;0.60;;;;;;;;;;5034262;28;20818;-56
2022/02/27 05:55:25;;;;;;;0.60;0.60;;;;;;;;;;5034210;28;20491;-60
2022/02/27 05:57:51;;;;;;;0.60;0.60;;;;;;;;;;5034114;28;20411;-57
2022/02/27 06:00:17;;;;;;;0.60;0.60;;;;;;;;;;5033853;28;20445;-60
2022/02/27 06:02:43;;;;;;;0.60;0.60;;;;;;;;;;5033798;28;20459;-59
2022/02/27 06:05:09;;;;;;;0.60;0.60;;;;;;;;;;5034004;28;20585;-60
2022/02/27 06:07:35;;;;;;;0.60;0.60;;;;;;;;;;5016147;28;20783;-59
2022/02/27 06:10:01;;;;;;;0.50;0.50;;;;;;;;;;5034032;28;20979;-60
2022/02/27 06:12:27;;;;;;;0.60;0.60;;;;;;;;;;5033490;28;20193;-59
2022/02/27 06:14:53;;;;;;;0.60;0.60;;;;;;;;;;5033811;28;20246;-60
2022/02/27 06:17:19;;;;;;;0.60;0.60;;;;;;;;;;5033641;28;20685;-60
2022/02/27 06:19:45;;;;;;;0.60;0.60;;;;;;;;;;5033596;28;21126;-58
2022/02/27 06:22:11;;;;;;;0.60;0.60;;;;;;;;;;5033389;28;20954;-60
2022/02/27 06:24:37;;;;;;;0.60;0.60;;;;;;;;;;5033556;28;20415;-59
2022/02/27 06:27:03;;;;;;;0.70;0.70;;;;;;;;;;5033564;28;20410;-60
2022/02/27 06:29:29;;;;;;;0.70;0.70;;;;;;;;;;5037200;28;20415;-55
2022/02/27 06:31:55;;;;;;;0.70;0.70;;;;;;;;;;5033170;28;20211;-59
2022/02/27 06:34:21;;;;;;;0.60;0.60;;;;;;;;;;5033453;28;20399;-56
2022/02/27 06:36:47;;;;;;;0.57;0.57;;;;;;;;;;5033313;28;20547;-57
2022/02/27 06:39:13;;;;;;;0.60;0.60;;;;;;;;;;5033198;28;20451;-59
2022/02/27 06:41:39;;;;;;;0.60;0.60;;;;;;;;;;5032747;28;20756;-59
2022/02/27 06:44:05;;;;;;;0.60;0.60;;;;;;;;;;5033177;28;20406;-58
2022/02/27 06:46:31;;;;;;;0.50;0.50;;;;;;;;;;5033138;28;20173;-57
2022/02/27 06:48:57;;;;;;;0.55;0.55;;;;;;;;;;5033092;28;20235;-56
2022/02/27 06:51:23;;;;;;;0.50;0.50;;;;;;;;;;5032878;28;20200;-58
2022/02/27 06:53:49;;;;;;;0.50;0.50;;;;;;;;;;5033123;28;20500;-58
2022/02/27 06:56:15;;;;;;;0.50;0.50;;;;;;;;;;5033120;28;20178;-55
2022/02/27 06:58:41;;;;;;;0.60;0.60;;;;;;;;;;5032892;28;21104;-57
2022/02/27 07:01:07;;;;;;;0.60;0.60;;;;;;;;;;5032659;28;20184;-60
2022/02/27 07:03:33;;;;;;;0.50;0.50;;;;;;;;;;5032937;28;20259;-58
2022/02/27 07:05:58;;;;;;;0.50;0.50;;;;;;;;;;5032949;28;20412;-59
2022/02/27 07:08:25;;;;;;;0.60;0.60;;;;;;;;;;5032892;28;20419;-60
2022/02/27 07:10:51;;;;;;;0.50;0.50;;;;;;;;;;5032739;28;20412;-60
2022/02/27 07:13:17;;;;;;;0.50;0.50;;;;;;;;;;5032898;28;20606;-58
2022/02/27 07:15:43;;;;;;;0.60;0.60;;;;;;;;;;5033022;28;20819;-60
2022/02/27 07:18:09;;;;;;;0.60;0.60;;;;;;;;;;5032937;28;20490;-57
2022/02/27 07:20:35;;;;;;;0.50;0.50;;;;;;;;;;5032827;28;20404;-60
2022/02/27 07:23:00;;;;;;;0.50;0.50;;;;;;;;;;5032831;28;20799;-60
2022/02/27 07:25:26;;;;;;;0.60;0.60;;;;;;;;;;5032861;28;20408;-60
2022/02/27 07:27:52;;;;;;;0.60;0.60;;;;;;;;;;5032760;28;20910;-61
2022/02/27 07:30:18;;;;;;;0.60;0.60;;;;;;;;;;5032243;28;20772;-59
2022/02/27 07:32:44;;;;;;;0.60;0.60;;;;;;;;;;5032768;28;20428;-62
2022/02/27 07:35:10;;;;;;;0.50;0.50;;;;;;;;;;5032822;28;20399;-60
2022/02/27 07:37:36;;;;;;;0.50;0.50;;;;;;;;;;5032606;28;20176;-60
2022/02/27 07:40:05;;;;;;;0.60;0.60;;;;;;;;;;5032378;28;20188;-58
2022/02/27 07:42:32;;;;;;;0.60;0.60;;;;;;;;;;5032323;28;20212;-60
2022/02/27 07:44:58;;;;;;;0.50;0.50;;;;;;;;;;5032665;28;20263;-60
2022/02/27 07:47:24;;;;;;;0.50;0.50;;;;;;;;;;5032436;28;20215;-61
2022/02/27 07:49:50;;;;;;;0.50;0.50;;;;;;;;;;5031977;28;20408;-60
2022/02/27 07:52:16;;;;;;;0.60;0.60;;;;;;;;;;5031659;28;20308;-61
2022/02/27 07:54:42;;;;;;;0.60;0.60;;;;;;;;;;5031952;28;20173;-62
2022/02/27 07:57:08;;;;;;;0.70;0.70;;;;;;;;;;5032043;28;20411;-59
2022/02/27 07:59:34;;;;;;;0.70;0.70;;;;;;;;;;5031747;28;20958;-59
2022/02/27 08:02:00;;;;;;;19.70;18.60;;;;;;;;;;5031442;28;20948;-61
2022/02/27 08:04:25;;;;;;;1.27;1.27;;;;;;;;;;5030914;28;20400;-59
2022/02/27 08:06:51;;;;;;;1.00;1.00;;;;;;;;;;5030083;28;20976;-61
2022/02/27 08:09:17;;;;;;;1.23;1.23;;;;;;;;;;5031319;28;20407;-60
2022/02/27 08:11:43;;;;;;;1.20;1.20;;;;;;;;;;5030954;28;20470;-60
2022/02/27 08:14:09;;;;;;;0.63;0.63;;;;;;;;;;5031525;28;20486;-61
2022/02/27 08:16:35;;;;;;;0.70;0.70;;;;;;;;;;5030619;28;20408;-61
2022/02/27 08:19:01;;;;;;;0.60;0.60;;;;;;;;;;5031544;28;20553;-61
2022/02/27 08:21:27;;;;;;;0.60;0.60;;;;;;;;;;5031612;28;20454;-60
2022/02/27 08:23:53;;;;;;;0.70;0.70;;;;;;;;;;5031962;28;20636;-60
2022/02/27 08:26:19;;;;;;;0.90;0.90;;;;;;;;;;5031495;28;20806;-60
2022/02/27 08:28:45;;;;;;;0.80;0.80;;;;;;;;;;5031876;28;20500;-61
2022/02/27 08:31:11;;;;;;;0.70;0.70;;;;;;;;;;5031537;28;20212;-61
2022/02/27 08:33:38;;;;;;;0.60;0.60;;;;;;;;;;5031564;28;20255;-61
2022/02/27 08:36:04;;;;;;;0.60;0.60;;;;;;;;;;5031560;28;20324;-60
2022/02/27 08:38:30;;;;;;;0.70;0.70;;;;;;;;;;5031384;28;20198;-60
2022/02/27 08:40:56;;;;;;;0.80;0.80;;;;;;;;;;5031007;28;20220;-61
2022/02/27 08:43:22;;;;;;;0.63;0.63;;;;;;;;;;5031684;28;20988;-60
2022/02/27 08:45:48;;;;;;;0.50;0.50;;;;;;;;;;5031228;28;20419;-60
2022/02/27 08:48:14;;;;;;;0.60;0.60;;;;;;;;;;5031447;28;20493;-61
2022/02/27 08:50:40;;;;;;;0.50;0.50;;;;;;;;;;5030981;28;20681;-62
2022/02/27 08:53:06;;;;;;;0.80;0.80;;;;;;;;;;5031091;28;20789;-61
2022/02/27 08:55:32;;;;;;;0.50;0.50;;;;;;;;;;5031344;28;20406;-61
2022/02/27 08:57:58;;;;;;;0.70;0.70;;;;;;;;;;5031564;28;20748;-61
2022/02/27 09:00:24;;;;;;;0.60;0.60;;;;;;;;;;5031470;28;20516;-61
2022/02/27 09:02:50;;;;;;;0.60;0.60;;;;;;;;;;5032730;28;20620;-61
2022/02/27 09:05:16;;;;;;;0.50;0.50;;;;;;;;;;5035331;28;20744;-61
2022/02/27 09:07:42;;;;;;;0.50;0.50;;;;;;;;;;5035278;28;20802;-61
2022/02/27 09:10:12;;;;;;;0.50;0.50;;;;;;;;;;5034979;28;20521;-60
2022/02/27 09:12:38;;;;;;;0.50;0.50;;;;;;;;;;5035226;28;20431;-61
2022/02/27 09:15:04;;;;;;;0.40;0.40;;;;;;;;;;5035002;28;20200;-61
2022/02/27 09:17:30;;;;;;;0.40;0.40;;;;;;;;;;5034912;28;20438;-62
2022/02/27 09:19:56;;;;;;;0.40;0.40;;;;;;;;;;5034840;28;20212;-61
2022/02/27 09:22:22;;;;;;;0.50;0.50;;;;;;;;;;5034600;28;20788;-61
2022/02/27 09:24:47;;;;;;;0.70;0.70;;;;;;;;;;5034798;28;20446;-62
2022/02/27 09:27:13;;;;;;;0.40;0.40;;;;;;;;;;5034665;28;20404;-59
2022/02/27 09:29:39;;;;;;;0.53;0.53;;;;;;;;;;5034599;28;20443;-62
2022/02/27 09:32:06;;;;;;;0.60;0.60;;;;;;;;;;5034209;28;20424;-61
2022/02/27 09:34:31;;;;;;;0.50;0.50;;;;;;;;;;5034590;28;20184;-62
2022/02/27 09:36:57;;;;;;;0.50;0.50;;;;;;;;;;5034643;28;20540;-62
2022/02/27 09:39:24;;;;;;;0.63;0.63;;;;;;;;;;5034278;28;20453;-62
2022/02/27 09:41:50;;;;;;;0.60;0.60;;;;;;;;;;5034104;28;20442;-62
2022/02/27 09:44:16;;;;;;;0.50;0.50;;;;;;;;;;5028382;23;20237;-62
2022/02/27 09:46:48;;;;;;;0.70;0.70;;;;;;;;;;4994664;28;20417;-61
2022/02/27 09:49:14;;;;;;;0.50;0.50;;;;;;;;;;4995454;28;20405;-61
2022/02/27 09:51:40;;;;;;;0.60;0.60;;;;;;;;;;4993663;28;20432;-62
2022/02/27 09:54:06;;;;;;;0.50;0.50;;;;;;;;;;4995086;28;20403;-62
2022/02/27 09:56:32;;;;;;;0.50;0.50;;;;;;;;;;4995300;28;20769;-62
2022/02/27 09:58:58;;;;;;;0.40;0.40;;;;;;;;;;4995071;28;20975;-62
2022/02/27 10:01:24;;;;;;;0.40;0.40;;;;;;;;;;4994627;28;20437;-63
2022/02/27 10:03:50;;;;;;;0.37;0.37;;;;;;;;;;4995104;28;20408;-62
2022/02/27 10:06:19;;;;;;;0.40;0.40;;;;;;;;;;4994961;28;20418;-62
2022/02/27 10:08:47;;;;;;;0.50;0.50;;;;;;;;;;4994773;28;20479;-62
2022/02/27 10:11:17;;;;;;;0.40;0.40;;;;;;;;;;4994668;28;20385;-62
2022/02/27 10:13:45;;;;;;;0.60;0.60;;;;;;;;;;4994414;28;20434;-62
2022/02/27 10:16:16;;;;;;;0.40;0.40;;;;;;;;;;4994701;28;20415;-62
2022/02/27 10:18:48;;;;;;;0.40;0.40;;;;;;;;;;4994526;28;20458;-62
2022/02/27 10:21:20;;;;;;;0.40;0.40;;;;;;;;;;4994391;28;20803;-62
2022/02/27 10:23:59;;;;;;;0.50;0.50;;;;;;;;;;4994175;28;20449;-62
2022/02/27 10:26:25;;;;;;;0.40;0.40;;;;;;;;;;4975038;28;21082;-62
2022/02/27 10:29:03;;;;;;;0.43;0.43;;;;;;;;;;4974851;28;20403;-62
2022/02/27 10:31:30;;;;;;;0.40;0.40;;;;;;;;;;4974672;28;20755;-62
2022/02/27 10:34:11;;;;;;;0.50;0.50;;;;;;;;;;4974673;28;20441;-62
2022/02/27 10:36:37;;;;;;;0.50;0.50;;;;;;;;;;4974792;28;20388;-62
2022/02/27 10:39:03;;;;;;;0.57;0.57;;;;;;;;;;4974451;28;21003;-62
2022/02/27 10:41:36;;;;;;;0.40;0.40;;;;;;;;;;4974474;28;20909;-62
2022/02/27 10:44:02;;;;;;;0.60;0.60;;;;;;;;;;4974319;28;20424;-62
2022/02/27 10:46:32;;;;;;;0.50;0.50;;;;;;;;;;4974791;28;20468;-61
2022/02/27 10:48:58;;;;;;;0.60;0.60;;;;;;;;;;4974692;28;20422;-61
2022/02/27 10:51:24;;;;;;;0.60;0.60;;;;;;;;;;4974067;28;21096;-61
2022/02/27 10:53:51;;;;;;;0.60;0.60;;;;;;;;;;4974344;28;20439;-62
2022/02/27 10:56:17;;;;;;;0.50;0.50;;;;;;;;;;4974637;28;20418;-62
2022/02/27 10:58:43;;;;;;;0.40;0.40;;;;;;;;;;4974411;28;20466;-63
2022/02/27 11:01:22;;;;;;;0.40;0.40;;;;;;;;;;4974060;28;20907;-62
2022/02/27 11:03:49;;;;;;;0.50;0.50;;;;;;;;;;4974064;28;20809;-62
2022/02/27 11:06:16;;;;;;;0.50;0.50;;;;;;;;;;4974126;28;20760;-62
2022/02/27 11:08:42;;;;;;;0.40;0.40;;;;;;;;;;4974190;28;20382;-62
2022/02/27 11:11:08;;;;;;;0.40;0.40;;;;;;;;;;4973794;28;20450;-62
2022/02/27 11:13:35;;;;;;;0.40;0.40;;;;;;;;;;4973995;28;20444;-62
2022/02/27 11:16:02;;;;;;;0.40;0.40;;;;;;;;;;4973997;28;20419;-62
2022/02/27 11:18:28;;;;;;;0.30;0.30;;;;;;;;;;4973760;28;20432;-62
2022/02/27 11:20:55;;;;;;;0.50;0.50;;;;;;;;;;4973599;28;20505;-62
2022/02/27 11:23:21;;;;;;;0.40;0.40;;;;;;;;;;4973870;28;20849;-62
2022/02/27 11:25:47;;;;;;;0.40;0.40;;;;;;;;;;4973102;28;20381;-62
2022/02/27 11:28:15;;;;;;;0.47;0.47;;;;;;;;;;4973812;28;20422;-62
2022/02/27 11:30:41;;;;;;;0.37;0.37;;;;;;;;;;4973520;28;20415;-62
2022/02/27 11:33:11;;;;;;;0.50;0.50;;;;;;;;;;4973262;28;20417;-62
2022/02/27 11:35:39;;;;;;;0.40;0.40;;;;;;;;;;4973812;28;20380;-61
2022/02/27 11:38:06;;;;;;;0.50;0.50;;;;;;;;;;4973401;28;20416;-62
2022/02/27 11:40:42;;;;;;;0.40;0.40;;;;;;;;;;4973443;28;20403;-62
2022/02/27 11:43:08;;;;;;;0.40;0.40;;;;;;;;;;4973403;28;20445;-62
2022/02/27 11:45:34;;;;;;;0.40;0.40;;;;;;;;;;4973499;28;20442;-62
2022/02/27 11:48:01;;;;;;;0.40;0.40;;;;;;;;;;4973434;28;20440;-62
2022/02/27 11:50:27;;;;;;;0.50;0.50;;;;;;;;;;4973047;28;20392;-62
2022/02/27 11:52:53;;;;;;;0.40;0.40;;;;;;;;;;4973312;28;20509;-62
2022/02/27 11:55:37;;;;;;;0.50;0.50;;;;;;;;;;4973292;28;20388;-62
2022/02/27 11:58:03;;;;;;;0.50;0.50;;;;;;;;;;4973171;28;20411;-62
2022/02/27 12:00:37;;;;;;;0.47;0.47;;;;;;;;;;4972959;28;20881;-62
2022/02/27 12:03:23;;;;;;;0.50;0.50;;;;;;;;;;4972926;28;20485;-62
2022/02/27 12:05:51;;;;;;;0.40;0.40;;;;;;;;;;4973114;28;20413;-62
2022/02/27 12:08:17;;;;;;;0.50;0.50;;;;;;;;;;4973270;28;20822;-62
2022/02/27 12:10:48;;;;;;;0.50;0.50;;;;;;;;;;4972857;28;20417;-62
2022/02/27 12:13:17;;;;;;;0.40;0.40;;;;;;;;;;4972982;28;20449;-62
2022/02/27 12:15:43;;;;;;;0.50;0.50;;;;;;;;;;4973017;28;20466;-62
2022/02/27 12:18:18;;;;;;;0.70;0.70;;;;;;;;;;4973039;28;20455;-62
2022/02/27 12:20:44;;;;;;;0.50;0.50;;;;;;;;;;4972698;28;20414;-62
2022/02/27 12:23:11;;;;;;;0.60;0.60;;;;;;;;;;4972982;28;20435;-62
2022/02/27 12:25:39;;;;;;;0.60;0.60;;;;;;;;;;4973008;28;20539;-62
2022/02/27 12:28:05;;;;;;;0.50;0.50;;;;;;;;;;4972781;28;20410;-62
2022/02/27 12:30:32;;;;;;;0.80;0.80;;;;;;;;;;4972751;28;20438;-62
2022/02/27 12:33:06;;;;;;;0.50;0.50;;;;;;;;;;4972713;28;20423;-62
2022/02/27 12:35:33;;;;;;;0.60;0.60;;;;;;;;;;4972824;28;20406;-62
2022/02/27 12:38:02;;;;;;;0.40;0.40;;;;;;;;;;4972676;28;20433;-62
2022/02/27 12:40:29;;;;;;;0.80;0.80;;;;;;;;;;4972510;28;20411;-62
2022/02/27 12:43:02;;;;;;;0.53;0.53;;;;;;;;;;4972763;28;20442;-62
2022/02/27 12:45:33;;;;;;;0.70;0.70;;;;;;;;;;4972879;28;20446;-62
2022/02/27 12:48:12;;;;;;;0.60;0.60;;;;;;;;;;4972787;28;20406;-63
2022/02/27 12:50:49;;;;;;;0.50;0.50;;;;;;;;;;4972456;28;20772;-61
2022/02/27 12:53:16;;;;;;;0.50;0.50;;;;;;;;;;4972580;28;20528;-61
2022/02/27 12:55:42;;;;;;;0.40;0.40;;;;;;;;;;4972809;28;20445;-62
2022/02/27 12:58:09;;;;;;;0.35;0.35;;;;;;;;;;4972524;28;20434;-62
2022/02/27 13:00:37;;;;;;;1.23;1.23;;;;;;;;;;4972305;28;20173;-62
2022/02/27 13:03:21;;;;;;;0.70;0.70;;;;;;;;;;4972352;28;20281;-62
2022/02/27 13:05:58;;;;;;;0.50;0.50;;;;;;;;;;4972492;28;20908;-62
2022/02/27 13:08:24;;;;;;;0.63;0.63;;;;;;;;;;4972519;28;20594;-62
2022/02/27 13:10:49;;;;;;;0.67;0.67;;;;;;;;;;4972312;28;20183;-62
2022/02/27 13:13:17;;;;;;;0.60;0.60;;;;;;;;;;4972669;28;20524;-64
2022/02/27 13:15:52;;;;;;;0.50;0.50;;;;;;;;;;4972398;28;20964;-61
2022/02/27 13:18:19;;;;;;;0.50;0.50;;;;;;;;;;4972275;28;20712;-62
2022/02/27 13:20:45;;;;;;;0.43;0.43;;;;;;;;;;4972265;28;20818;-62
2022/02/27 13:23:11;;;;;;;0.40;0.40;;;;;;;;;;4972238;28;20795;-62
2022/02/27 13:25:37;;;;;;;0.50;0.50;;;;;;;;;;4972471;28;20406;-61
2022/02/27 13:28:03;;;;;;;0.50;0.50;;;;;;;;;;4972132;28;20407;-61
2022/02/27 13:30:29;;;;;;;0.60;0.60;;;;;;;;;;4971925;28;20430;-62
2022/02/27 13:32:57;;;;;;;0.50;0.50;;;;;;;;;;4972325;28;20267;-62
2022/02/27 13:35:27;;;;;;;0.43;0.43;;;;;;;;;;4972319;28;20234;-62
2022/02/27 13:38:02;;;;;;;0.40;0.40;;;;;;;;;;4972266;28;20256;-61
2022/02/27 13:40:29;;;;;;;0.50;0.50;;;;;;;;;;4972181;28;20173;-61
2022/02/27 13:42:56;;;;;;;0.60;0.60;;;;;;;;;;4972113;28;20218;-61
2022/02/27 13:45:40;;;;;;;0.45;0.45;;;;;;;;;;4972157;28;20213;-62
2022/02/27 13:48:10;;;;;;;0.50;0.50;;;;;;;;;;4972215;28;20193;-62
2022/02/27 13:50:41;;;;;;;0.50;0.50;;;;;;;;;;4975439;28;20175;-62
2022/02/27 13:53:15;;;;;;;0.40;0.40;;;;;;;;;;4975487;28;20198;-62
2022/02/27 13:55:43;;;;;;;0.40;0.40;;;;;;;;;;4975451;28;20532;-62
2022/02/27 13:58:11;;;;;;;0.50;0.50;;;;;;;;;;4975605;28;20543;-62
2022/02/27 14:00:38;;;;;;;0.50;0.50;;;;;;;;;;4975104;28;20171;-64
2022/02/27 14:03:06;;;;;;;0.70;0.70;;;;;;;;;;4975318;28;20203;-62
2022/02/27 14:05:35;;;;;;;0.60;0.60;;;;;;;;;;4975339;28;20218;-61
2022/02/27 14:08:01;;;;;;;0.57;0.57;;;;;;;;;;4975188;28;20183;-61
2022/02/27 14:10:29;;;;;;;0.50;0.50;;;;;;;;;;4975152;28;20425;-64
2022/02/27 14:12:56;;;;;;;0.60;0.60;;;;;;;;;;4975206;28;20430;-62
2022/02/27 14:15:26;;;;;;;0.60;0.60;;;;;;;;;;4975045;28;20255;-62
2022/02/27 14:17:52;;;;;;;0.40;0.40;;;;;;;;;;4975056;28;20176;-62
2022/02/27 14:20:18;;;;;;;0.60;0.60;;;;;;;;;;4974872;28;20222;-63
2022/02/27 14:22:44;;;;;;;0.60;0.60;;;;;;;;;;4974866;28;20415;-63
2022/02/27 14:25:10;;;;;;;0.60;0.60;;;;;;;;;;4974907;28;20829;-64
2022/02/27 14:27:36;;;;;;;0.60;0.60;;;;;;;;;;4975063;28;21109;-62
2022/02/27 14:30:02;;;;;;;0.53;0.53;;;;;;;;;;4975005;28;20434;-62
2022/02/27 14:32:30;;;;;;;0.50;0.50;;;;;;;;;;4974802;28;20498;-62
2022/02/27 14:34:58;;;;;;;0.40;0.40;;;;;;;;;;4974895;28;20191;-62
2022/02/27 14:37:24;;;;;;;0.57;0.57;;;;;;;;;;4975310;28;20234;-62
2022/02/27 14:40:10;;;;;;;0.60;0.60;;;;;;;;;;4974711;28;20219;-61
2022/02/27 14:42:36;;;;;;;0.60;0.60;;;;;;;;;;4974682;28;20206;-62